Time;durP1;ratioP1;P1;durP2;ratioP2;P2;SDS_P1;SDS_P2;PMS_P1;PMS_P2;Temp;Humidity;BMP_temperature;BMP_pressure;BME280_temperature;BME280_humidity;BME280_pressure;Samples;Min_cycle;Max_cycle;Signal;HPM_P1;HPM_P2
2021/11/22 00:13:51;;;;;;;11.95;9.55;;;23.10;58.10;;;;;;31499140;28;20140;-48
2021/11/22 00:28:53;;;;;;;11.65;9.27;;;23.00;58.60;;;;;;31496005;28;20040;-47
2021/11/22 00:43:55;;;;;;;11.07;9.13;;;22.90;58.90;;;;;;31494801;28;20544;-49
2021/11/22 00:58:57;;;;;;;12.25;7.55;;;22.80;59.30;;;;;;31478153;28;20061;-47
2021/11/22 01:14:00;;;;;;;9.43;7.07;;;22.70;59.40;;;;;;31494607;28;20041;-44
2021/11/22 01:29:02;;;;;;;7.63;6.00;;;23.00;59.20;;;;;;31509693;28;20049;-50
2021/11/22 01:44:04;;;;;;;7.40;6.05;;;23.20;58.90;;;;;;31517615;28;20045;-47
2021/11/22 01:59:06;;;;;;;8.23;6.50;;;23.10;59.40;;;;;;31518617;28;20053;-38
2021/11/22 02:14:08;;;;;;;7.78;5.95;;;23.00;59.80;;;;;;31515911;28;20124;-52
2021/11/22 02:29:10;;;;;;;8.30;6.38;;;22.90;60.10;;;;;;31494845;28;20052;-49
2021/11/22 02:44:12;;;;;;;9.43;6.38;;;22.90;59.90;;;;;;31511180;28;20048;-48
2021/11/22 02:59:15;;;;;;;6.00;5.35;;;22.80;60.10;;;;;;31565552;28;20076;-44
2021/11/22 03:14:17;;;;;;;5.47;4.90;;;22.80;60.10;;;;;;31506892;28;20037;-46
2021/11/22 03:29:20;;;;;;;5.32;4.82;;;23.20;60.10;;;;;;31505186;28;20037;-42
2021/11/22 03:44:22;;;;;;;5.75;4.70;;;23.20;59.90;;;;;;31504955;28;20049;-45
2021/11/22 03:59:24;;;;;;;6.00;5.05;;;23.10;60.40;;;;;;31504331;28;20084;-45
2021/11/22 04:14:26;;;;;;;5.38;4.55;;;23.00;60.70;;;;;;31483951;28;20048;-51
2021/11/22 04:29:29;;;;;;;7.25;5.35;;;22.90;60.70;;;;;;31498602;28;20064;-51
2021/11/22 04:44:31;;;;;;;13.68;10.80;;;22.90;60.60;;;;;;31501948;28;20060;-43
2021/11/22 04:59:36;;;;;;;23.08;16.67;;;22.50;53.40;;;;;;31521091;28;20116;-42
2021/11/22 05:14:38;;;;;;;15.73;12.13;;;22.80;56.40;;;;;;31496070;28;20069;-40
2021/11/22 05:29:40;;;;;;;12.75;9.45;;;23.20;57.40;;;;;;31578723;28;20090;-44
2021/11/22 05:44:43;;;;;;;11.45;8.13;;;23.30;58.50;;;;;;31615950;28;20090;-46
2021/11/22 05:59:46;;;;;;;44.83;35.17;;;23.30;58.80;;;;;;31507421;28;20084;-45
2021/11/22 06:14:52;;;;;;;39.67;28.83;;;22.90;55.00;;;;;;31502271;28;20067;-45
2021/11/22 06:29:54;;;;;;;38.85;24.15;;;22.70;52.10;;;;;;31554146;28;20049;-37
2021/11/22 06:44:56;;;;;;;29.75;23.13;;;22.50;51.60;;;;;;31516635;28;20103;-46
2021/11/22 06:59:58;;;;;;;26.50;18.88;;;22.80;52.30;;;;;;31512593;28;20057;-38
2021/11/22 07:15:01;;;;;;;115.40;85.03;;;23.10;52.70;;;;;;31519776;28;20186;-43
2021/11/22 07:30:06;;;;;;;111.10;80.15;;;23.00;52.60;;;;;;31692530;28;20047;-47
2021/11/22 07:45:08;;;;;;;72.05;55.38;;;22.90;53.00;;;;;;31754931;28;20047;-38
2021/11/22 08:00:12;;;;;;;58.75;42.88;;;22.70;51.60;;;;;;31738723;28;20057;-37
2021/11/22 08:15:15;;;;;;;81.88;64.45;;;22.60;50.40;;;;;;31628905;28;20092;-44
2021/11/22 08:30:18;;;;;;;90.68;64.97;;;22.50;48.90;;;;;;31621055;28;20066;-44
2021/11/22 08:45:21;;;;;;;72.93;53.67;;;22.30;47.80;;;;;;31621327;28;20068;-45
2021/11/22 09:00:31;;;;;;;45.80;34.85;;;22.50;49.60;;;;;;31620291;28;20079;-42
2021/11/22 09:15:33;;;;;;;40.53;32.03;;;22.80;46.80;;;;;;31623318;28;20119;-43
2021/11/22 09:30:35;;;;;;;37.42;26.30;;;22.90;48.70;;;;;;31618519;28;20044;-51
2021/11/22 09:45:38;;;;;;;39.70;31.17;;;22.90;49.60;;;;;;31624974;28;20077;-41
2021/11/22 10:00:50;;;;;;;61.95;49.78;;;22.50;48.10;;;;;;31642925;28;20059;-38
2021/11/22 10:15:58;;;;;;;49.53;39.88;;;22.10;46.60;;;;;;31639202;28;20066;-41
2021/11/22 10:31:04;;;;;;;40.22;30.13;;;21.70;45.80;;;;;;31614808;28;20128;-46
2021/11/22 10:46:09;;;;;;;22.15;19.10;;;21.40;48.40;;;;;;31635957;28;20048;-41
2021/11/22 11:01:51;;;;;;;21.33;17.45;;;22.20;45.80;;;;;;31636777;28;20049;-45
2021/11/22 11:16:54;;;;;;;17.25;12.60;;;22.40;46.70;;;;;;31616797;28;20048;-39
2021/11/22 11:31:56;;;;;;;16.10;12.35;;;22.50;46.40;;;;;;31632770;28;20037;-40
2021/11/22 11:47:16;;;;;;;19.77;11.35;;;22.50;46.70;;;;;;31530207;28;20087;-46
2021/11/22 12:02:28;;;;;;;14.82;11.40;;;22.60;46.70;;;;;;31530350;28;20068;-43
2021/11/22 12:17:34;;;;;;;17.48;9.93;;;22.70;47.90;;;;;;31512635;28;20066;-41
2021/11/22 12:32:36;;;;;;;33.15;11.13;;;22.80;49.40;;;;;;31502373;28;20045;-40
2021/11/22 12:47:50;;;;;;;15.02;9.23;;;23.10;50.30;;;;;;31549655;28;20053;-38
2021/11/22 13:02:59;;;;;;;30.88;24.60;;;23.20;50.70;;;;;;31619687;28;20131;-42
2021/11/22 13:18:47;;;;;;;27.60;19.92;;;22.90;51.40;;;;;;31597421;28;20049;-43
2021/11/22 13:33:53;;;;;;;31.10;22.10;;;22.80;50.90;;;;;;31581563;28;20114;-39
2021/11/22 13:48:57;;;;;;;31.98;22.17;;;22.70;49.90;;;;;;31518820;28;20053;-43
2021/11/22 14:04:01;;;;;;;25.02;19.15;;;22.60;49.40;;;;;;31525936;28;20068;-44
2021/11/22 14:19:12;;;;;;;25.88;19.15;;;22.50;49.00;;;;;;31623380;28;20045;-44
2021/11/22 14:34:16;;;;;;;24.85;17.08;;;22.50;49.60;;;;;;31564909;28;20045;-46
2021/11/22 14:49:28;;;;;;;23.65;15.98;;;22.60;49.90;;;;;;31608502;28;20069;-44
2021/11/22 15:04:38;;;;;;;20.15;13.38;;;22.50;50.30;;;;;;31630558;28;20052;-46
2021/11/22 15:19:42;;;;;;;17.40;12.68;;;22.70;50.50;;;;;;31630004;28;20086;-44
2021/11/22 15:34:44;;;;;;;16.60;11.77;;;23.10;50.40;;;;;;31629637;28;20477;-45
2021/11/22 15:49:47;;;;;;;21.02;10.45;;;23.20;50.50;;;;;;31626432;28;20104;-41
2021/11/22 16:04:49;;;;;;;17.63;11.55;;;23.10;51.10;;;;;;31608542;28;20045;-48
2021/11/22 16:19:51;;;;;;;15.75;10.95;;;23.00;50.90;;;;;;31626575;28;20488;-44
2021/11/22 16:34:54;;;;;;;22.52;14.10;;;23.00;51.20;;;;;;31629037;28;20048;-40
2021/11/22 16:49:56;;;;;;;28.10;16.77;;;22.90;51.60;;;;;;31607405;28;20049;-38
2021/11/22 17:04:58;;;;;;;36.67;20.10;;;22.80;51.70;;;;;;31244041;28;10000382;-46
2021/11/22 17:20:01;;;;;;;28.50;16.63;;;23.10;52.70;;;;;;31490083;28;20961;-40
2021/11/22 17:35:05;;;;;;;24.00;15.70;;;23.40;52.80;;;;;;31489116;28;20065;-47
2021/11/22 17:50:08;;;;;;;23.80;15.52;;;23.50;52.90;;;;;;31484659;28;20144;-47
2021/11/22 18:05:11;;;;;;;29.42;17.40;;;23.40;53.40;;;;;;31493053;28;20049;-50
2021/11/22 18:20:14;;;;;;;42.80;18.98;;;23.30;53.70;;;;;;31512018;28;20049;-50
2021/11/22 18:35:16;;;;;;;32.70;17.60;;;23.30;54.10;;;;;;31154303;28;10000431;-46
2021/11/22 18:50:23;;;;;;;29.65;17.00;;;23.20;54.60;;;;;;31504849;28;20053;-41
2021/11/22 19:05:25;;;;;;;31.98;16.63;;;23.10;54.50;;;;;;31500322;28;20044;-40
2021/11/22 19:20:28;;;;;;;38.58;16.63;;;23.00;54.50;;;;;;31505600;28;20037;-51
2021/11/22 19:35:30;;;;;;;27.90;16.30;;;23.00;54.70;;;;;;31515343;28;20175;-49
2021/11/22 19:50:32;;;;;;;33.15;18.35;;;22.90;54.70;;;;;;31543691;28;20061;-50
2021/11/22 20:05:34;;;;;;;32.15;17.48;;;22.90;55.40;;;;;;31539009;28;20070;-46
2021/11/22 20:20:38;;;;;;;28.42;16.17;;;22.70;55.20;;;;;;31550152;28;20083;-50
2021/11/22 20:35:40;;;;;;;44.63;19.63;;;22.70;55.30;;;;;;31535888;28;20045;-44
2021/11/22 20:50:43;;;;;;;37.53;19.77;;;22.90;56.00;;;;;;31528855;28;20064;-43
2021/11/22 21:05:45;;;;;;;53.03;18.85;;;22.90;56.40;;;;;;31523720;28;20052;-44
2021/11/22 21:20:47;;;;;;;34.58;16.90;;;22.90;56.40;;;;;;31502712;28;20178;-47
2021/11/22 21:35:49;;;;;;;29.13;15.55;;;22.90;56.40;;;;;;31511731;28;20091;-49
2021/11/22 21:50:51;;;;;;;23.00;14.10;;;22.90;56.10;;;;;;31558796;28;20045;-50
2021/11/22 22:05:53;;;;;;;22.52;13.57;;;22.90;56.20;;;;;;31557482;28;20108;-43
2021/11/22 22:20:55;;;;;;;19.70;11.55;;;22.80;56.40;;;;;;31583519;28;20049;-38
2021/11/22 22:35:58;;;;;;;18.83;12.45;;;22.80;56.60;;;;;;31537042;28;20041;-48
2021/11/22 22:51:00;;;;;;;17.52;10.98;;;22.80;56.70;;;;;;31631608;28;20045;-46
2021/11/22 23:06:05;;;;;;;14.55;10.18;;;22.80;56.70;;;;;;31640921;28;20074;-43
2021/11/22 23:21:11;;;;;;;14.48;8.10;;;23.10;57.70;;;;;;31614540;28;20045;-40
2021/11/22 23:36:14;;;;;;;12.52;8.57;;;23.50;56.70;;;;;;31594730;28;20048;-38
2021/11/22 23:51:16;;;;;;;18.27;9.77;;;23.40;56.10;;;;;;31510276;28;20049;-41
